Time;durP1;ratioP1;P1;durP2;ratioP2;P2;SDS_P1;SDS_P2;PMS_P1;PMS_P2;Temp;Humidity;BMP_temperature;BMP_pressure;BME280_temperature;BME280_humidity;BME280_pressure;Samples;Min_cycle;Max_cycle;Signal;HPM_P1;HPM_P2
2021/10/30 00:00:15;;;;;;;24.50;23.00;;;;;;;;;;5074059;28;20510;-90
2021/10/30 00:02:42;;;;;;;23.97;22.20;;;;;;;;;;5074410;28;21119;-89
2021/10/30 00:05:11;;;;;;;24.03;22.23;;;;;;;;;;5073836;28;20460;-90
2021/10/30 00:07:40;;;;;;;25.17;23.47;;;;;;;;;;5073189;28;20453;-90
2021/10/30 00:10:07;;;;;;;24.27;22.53;;;;;;;;;;5074279;28;20995;-90
2021/10/30 00:12:35;;;;;;;25.10;23.30;;;;;;;;;;5073957;28;20451;-89
2021/10/30 00:15:04;;;;;;;25.40;23.80;;;;;;;;;;5073873;28;20446;-91
2021/10/30 00:17:32;;;;;;;24.30;22.20;;;;;;;;;;5073847;28;20485;-90
2021/10/30 00:19:59;;;;;;;24.97;23.07;;;;;;;;;;5074063;28;20511;-90
2021/10/30 00:22:29;;;;;;;25.07;23.27;;;;;;;;;;5074088;28;20871;-90
2021/10/30 00:24:56;;;;;;;24.97;23.10;;;;;;;;;;5074158;28;20552;-89
2021/10/30 00:27:23;;;;;;;24.50;22.83;;;;;;;;;;5074066;28;20468;-90
2021/10/30 00:29:51;;;;;;;24.80;23.00;;;;;;;;;;5074018;28;20445;-90
2021/10/30 00:32:20;;;;;;;23.63;22.20;;;;;;;;;;5073950;28;20435;-91
2021/10/30 00:34:47;;;;;;;24.53;22.93;;;;;;;;;;5073996;28;20438;-90
2021/10/30 00:37:14;;;;;;;23.83;22.33;;;;;;;;;;5074017;28;20416;-90
2021/10/30 00:39:42;;;;;;;25.13;22.50;;;;;;;;;;5074032;28;20438;-90
2021/10/30 00:42:09;;;;;;;24.67;22.77;;;;;;;;;;5074029;28;20772;-90
2021/10/30 00:44:37;;;;;;;23.77;22.17;;;;;;;;;;5074148;28;20417;-91
2021/10/30 00:47:05;;;;;;;25.50;23.53;;;;;;;;;;5073746;28;20496;-90
2021/10/30 00:49:34;;;;;;;23.33;21.63;;;;;;;;;;5073746;28;20469;-90
2021/10/30 00:52:02;;;;;;;23.80;21.87;;;;;;;;;;5073692;28;20460;-90
2021/10/30 00:54:32;;;;;;;23.67;22.17;;;;;;;;;;5073802;28;20439;-90
2021/10/30 00:57:00;;;;;;;23.53;22.03;;;;;;;;;;5073882;28;20444;-90
2021/10/30 00:59:28;;;;;;;24.73;23.23;;;;;;;;;;5073726;28;20428;-90
2021/10/30 01:01:55;;;;;;;24.10;22.50;;;;;;;;;;5073465;28;20501;-90
2021/10/30 01:04:23;;;;;;;24.60;23.00;;;;;;;;;;5073628;28;20400;-88
2021/10/30 01:06:53;;;;;;;24.27;22.70;;;;;;;;;;5073452;28;20474;-90
2021/10/30 01:09:21;;;;;;;24.20;22.70;;;;;;;;;;5072654;28;20421;-90
2021/10/30 01:11:49;;;;;;;23.67;22.20;;;;;;;;;;5072353;28;20416;-90
2021/10/30 01:14:16;;;;;;;25.17;23.47;;;;;;;;;;5073777;28;20431;-90
2021/10/30 01:16:47;;;;;;;24.87;23.13;;;;;;;;;;5075700;28;21056;-90
2021/10/30 01:19:15;;;;;;;25.67;23.87;;;;;;;;;;5077542;28;20429;-90
2021/10/30 01:21:43;;;;;;;26.13;24.23;;;;;;;;;;5077735;28;20794;-90
2021/10/30 01:24:11;;;;;;;26.40;24.60;;;;;;;;;;5077457;28;20442;-90
2021/10/30 01:26:38;;;;;;;25.07;23.37;;;;;;;;;;5077030;28;20459;-90
2021/10/30 01:29:06;;;;;;;25.53;23.63;;;;;;;;;;5077427;28;20416;-90
2021/10/30 01:31:33;;;;;;;25.70;24.00;;;;;;;;;;5077312;28;20824;-90
2021/10/30 01:34:04;;;;;;;25.87;24.17;;;;;;;;;;5077152;28;20440;-90
2021/10/30 01:36:33;;;;;;;25.53;23.53;;;;;;;;;;5076698;28;20416;-90
2021/10/30 01:39:02;;;;;;;25.70;23.87;;;;;;;;;;5077200;28;20803;-90
2021/10/30 01:41:29;;;;;;;24.93;23.20;;;;;;;;;;5076664;28;20936;-89
2021/10/30 01:43:57;;;;;;;25.37;23.13;;;;;;;;;;5077024;28;20523;-90
2021/10/30 01:46:26;;;;;;;27.17;25.27;;;;;;;;;;5076628;28;20986;-90
2021/10/30 01:48:54;;;;;;;25.83;23.93;;;;;;;;;;5076595;28;20441;-90
2021/10/30 01:51:22;;;;;;;26.00;24.03;;;;;;;;;;5077004;28;20448;-90
2021/10/30 01:53:50;;;;;;;26.43;24.53;;;;;;;;;;5076697;28;20401;-89
2021/10/30 01:56:19;;;;;;;25.67;23.90;;;;;;;;;;5076607;28;20410;-90
2021/10/30 01:58:46;;;;;;;28.40;26.13;;;;;;;;;;5076719;28;20415;-90
2021/10/30 02:01:14;;;;;;;27.33;25.43;;;;;;;;;;5076517;28;20427;-90
2021/10/30 02:03:41;;;;;;;27.10;25.10;;;;;;;;;;5075291;28;20531;-90
2021/10/30 02:06:09;;;;;;;29.87;27.03;;;;;;;;;;5076269;28;20489;-90
2021/10/30 02:08:37;;;;;;;27.60;25.60;;;;;;;;;;5076270;28;20437;-90
2021/10/30 02:11:04;;;;;;;27.07;25.27;;;;;;;;;;5076541;28;20472;-90
2021/10/30 02:13:33;;;;;;;26.83;24.87;;;;;;;;;;5076288;28;20420;-90
2021/10/30 02:16:01;;;;;;;28.30;25.40;;;;;;;;;;5076113;28;20412;-90
2021/10/30 02:18:29;;;;;;;26.73;24.77;;;;;;;;;;5076001;28;20467;-90
2021/10/30 02:20:57;;;;;;;27.40;25.30;;;;;;;;;;5076146;28;20494;-89
2021/10/30 02:23:25;;;;;;;27.67;25.58;;;;;;;;;;5075925;28;20920;-90
2021/10/30 02:25:52;;;;;;;30.07;27.70;;;;;;;;;;5075684;28;20215;-90
2021/10/30 02:28:20;;;;;;;30.63;28.07;;;;;;;;;;5075706;28;20419;-90
2021/10/30 02:30:49;;;;;;;29.53;27.13;;;;;;;;;;5075993;28;20427;-89
2021/10/30 02:33:16;;;;;;;27.43;25.23;;;;;;;;;;5076264;28;20416;-90
2021/10/30 02:35:44;;;;;;;26.60;24.80;;;;;;;;;;5075988;28;20436;-90
2021/10/30 02:38:11;;;;;;;26.60;24.70;;;;;;;;;;5058431;28;20415;-91
2021/10/30 02:40:39;;;;;;;28.93;26.57;;;;;;;;;;5076031;28;20798;-90
2021/10/30 02:43:06;;;;;;;28.60;26.50;;;;;;;;;;5075980;28;20803;-90
2021/10/30 02:45:34;;;;;;;30.00;27.60;;;;;;;;;;5074394;28;20448;-90
2021/10/30 02:48:03;;;;;;;29.37;27.00;;;;;;;;;;5075735;28;20191;-90
2021/10/30 02:50:30;;;;;;;26.57;24.60;;;;;;;;;;5075806;28;20466;-90
2021/10/30 02:52:58;;;;;;;28.50;26.40;;;;;;;;;;5075770;28;20441;-89
2021/10/30 02:55:25;;;;;;;26.50;24.80;;;;;;;;;;5075658;28;20450;-90
2021/10/30 02:57:53;;;;;;;27.13;25.20;;;;;;;;;;5075515;28;20498;-89
2021/10/30 03:00:20;;;;;;;28.10;26.03;;;;;;;;;;5075493;28;20427;-90
2021/10/30 03:02:48;;;;;;;27.20;25.10;;;;;;;;;;5075300;28;20477;-90
2021/10/30 03:05:17;;;;;;;29.23;27.07;;;;;;;;;;5074513;28;20607;-90
2021/10/30 03:07:45;;;;;;;27.63;25.63;;;;;;;;;;5075424;28;20478;-90
2021/10/30 03:10:13;;;;;;;27.70;25.60;;;;;;;;;;5074018;28;21029;-90
2021/10/30 03:12:40;;;;;;;27.07;25.07;;;;;;;;;;5075399;28;20423;-90
2021/10/30 03:15:08;;;;;;;27.57;25.57;;;;;;;;;;5075256;28;20437;-90
2021/10/30 03:17:35;;;;;;;27.67;25.67;;;;;;;;;;5074609;28;20471;-90
2021/10/30 03:20:03;;;;;;;27.63;25.57;;;;;;;;;;5074824;28;20418;-90
2021/10/30 03:22:32;;;;;;;27.30;24.90;;;;;;;;;;5074083;28;20903;-89
2021/10/30 03:24:59;;;;;;;27.07;25.17;;;;;;;;;;5074941;28;20440;-90
2021/10/30 03:27:27;;;;;;;27.20;25.30;;;;;;;;;;5074775;28;20467;-90
2021/10/30 03:29:55;;;;;;;28.70;26.30;;;;;;;;;;5074771;28;20434;-90
2021/10/30 03:32:22;;;;;;;26.70;24.70;;;;;;;;;;5074994;28;20418;-90
2021/10/30 03:34:49;;;;;;;28.80;26.63;;;;;;;;;;5074770;28;20443;-90
2021/10/30 03:37:17;;;;;;;27.43;25.43;;;;;;;;;;5074881;28;20433;-90
2021/10/30 03:39:46;;;;;;;28.13;25.97;;;;;;;;;;5074052;28;20439;-90
2021/10/30 03:42:13;;;;;;;27.93;25.93;;;;;;;;;;5074768;28;20416;-90
2021/10/30 03:44:41;;;;;;;28.30;26.17;;;;;;;;;;5074705;28;20441;-90
2021/10/30 03:47:08;;;;;;;27.73;25.77;;;;;;;;;;5074350;28;20488;-89
2021/10/30 03:49:35;;;;;;;28.23;26.23;;;;;;;;;;5074562;28;20442;-92
2021/10/30 03:52:03;;;;;;;29.00;26.80;;;;;;;;;;5074368;28;20411;-91
2021/10/30 03:54:30;;;;;;;28.40;26.40;;;;;;;;;;5074582;28;20426;-90
2021/10/30 03:56:59;;;;;;;29.20;27.00;;;;;;;;;;5073221;28;20543;-90
2021/10/30 03:59:27;;;;;;;29.67;27.37;;;;;;;;;;5074452;28;20459;-91
2021/10/30 04:01:54;;;;;;;29.05;26.80;;;;;;;;;;5074142;28;20560;-90
2021/10/30 04:04:21;;;;;;;28.60;26.57;;;;;;;;;;5074234;28;20191;-90
2021/10/30 04:06:49;;;;;;;29.03;26.80;;;;;;;;;;5074293;28;20486;-90
2021/10/30 04:09:18;;;;;;;28.50;26.30;;;;;;;;;;5074468;28;20412;-90
2021/10/30 04:11:45;;;;;;;29.43;26.77;;;;;;;;;;5074327;28;20428;-91
2021/10/30 04:14:14;;;;;;;27.70;25.80;;;;;;;;;;5074398;28;20456;-91
2021/10/30 04:16:42;;;;;;;29.63;27.43;;;;;;;;;;5074110;28;20467;-91
2021/10/30 04:19:09;;;;;;;28.60;26.60;;;;;;;;;;5074140;28;20452;-91
2021/10/30 04:21:36;;;;;;;27.10;25.00;;;;;;;;;;5074674;28;20438;-90
2021/10/30 04:24:04;;;;;;;28.67;26.20;;;;;;;;;;5074007;28;20407;-90
2021/10/30 04:26:32;;;;;;;27.70;25.60;;;;;;;;;;5072711;28;20452;-91
2021/10/30 04:28:59;;;;;;;28.73;26.67;;;;;;;;;;5074077;28;20491;-90
2021/10/30 04:31:30;;;;;;;30.58;28.15;;;;;;;;;;5074266;28;20894;-90
2021/10/30 04:34:00;;;;;;;28.70;26.60;;;;;;;;;;5074258;28;20191;-89
2021/10/30 04:36:29;;;;;;;29.10;26.60;;;;;;;;;;5074161;28;20432;-89
2021/10/30 04:38:56;;;;;;;29.33;27.03;;;;;;;;;;5074065;28;20432;-91
2021/10/30 04:41:24;;;;;;;29.57;27.30;;;;;;;;;;5072929;28;20917;-90
2021/10/30 04:43:52;;;;;;;30.40;27.55;;;;;;;;;;5074081;28;20457;-91
2021/10/30 04:46:20;;;;;;;28.03;25.83;;;;;;;;;;5072632;28;20276;-91
2021/10/30 04:48:49;;;;;;;29.40;27.00;;;;;;;;;;5073648;28;20444;-91
2021/10/30 04:51:17;;;;;;;29.37;26.97;;;;;;;;;;5077249;28;20412;-90
2021/10/30 04:53:45;;;;;;;28.07;25.80;;;;;;;;;;5077825;28;20909;-90
2021/10/30 04:56:13;;;;;;;30.10;27.73;;;;;;;;;;5077538;28;20407;-91
2021/10/30 04:58:43;;;;;;;30.05;27.80;;;;;;;;;;5077743;28;20460;-90
2021/10/30 05:01:11;;;;;;;28.47;26.37;;;;;;;;;;5077763;28;20223;-91
2021/10/30 05:03:38;;;;;;;28.27;26.10;;;;;;;;;;5077585;28;20448;-91
2021/10/30 05:06:07;;;;;;;28.63;26.23;;;;;;;;;;5077585;28;20444;-91
2021/10/30 05:08:34;;;;;;;29.60;27.30;;;;;;;;;;5077656;28;20485;-91
2021/10/30 05:11:02;;;;;;;29.87;27.77;;;;;;;;;;5077325;28;20473;-90
2021/10/30 05:13:29;;;;;;;29.80;27.37;;;;;;;;;;5077467;28;20431;-90
2021/10/30 05:15:57;;;;;;;29.37;27.20;;;;;;;;;;5077117;28;20432;-91
2021/10/30 05:18:24;;;;;;;24.90;23.10;;;;;;;;;;5077450;28;20963;-91
2021/10/30 05:20:53;;;;;;;28.80;26.60;;;;;;;;;;5077465;28;20778;-90
2021/10/30 05:23:22;;;;;;;29.50;27.20;;;;;;;;;;5077724;28;20426;-90
2021/10/30 05:25:50;;;;;;;27.80;25.70;;;;;;;;;;5077257;28;20427;-90
2021/10/30 05:28:21;;;;;;;27.80;25.90;;;;;;;;;;5076812;28;20940;-89
2021/10/30 05:30:48;;;;;;;26.67;24.60;;;;;;;;;;5077452;28;20451;-91
2021/10/30 05:33:16;;;;;;;28.60;26.10;;;;;;;;;;5077024;28;20508;-90
2021/10/30 05:35:43;;;;;;;28.70;26.60;;;;;;;;;;5075679;28;20455;-90
2021/10/30 05:38:11;;;;;;;28.70;26.53;;;;;;;;;;5076917;28;20422;-90
2021/10/30 05:40:41;;;;;;;29.00;26.63;;;;;;;;;;5076876;28;20415;-89
2021/10/30 05:43:08;;;;;;;31.00;28.50;;;;;;;;;;5075698;28;20426;-91
2021/10/30 05:45:36;;;;;;;29.97;27.50;;;;;;;;;;5077270;28;20535;-91
2021/10/30 05:48:05;;;;;;;29.17;26.97;;;;;;;;;;5076560;28;20463;-91
2021/10/30 05:50:33;;;;;;;29.27;26.97;;;;;;;;;;5075449;28;20456;-90
2021/10/30 05:53:00;;;;;;;28.45;26.33;;;;;;;;;;5075672;28;20457;-91
2021/10/30 05:55:28;;;;;;;30.57;28.00;;;;;;;;;;5076709;28;20206;-91
2021/10/30 05:57:57;;;;;;;27.67;25.60;;;;;;;;;;5075517;28;20827;-91
2021/10/30 06:00:24;;;;;;;30.40;28.00;;;;;;;;;;5076696;28;20463;-90
2021/10/30 06:02:51;;;;;;;30.60;28.23;;;;;;;;;;5075471;28;20439;-90
2021/10/30 06:05:19;;;;;;;31.37;28.67;;;;;;;;;;5076478;28;20420;-90
2021/10/30 06:07:47;;;;;;;31.43;28.70;;;;;;;;;;5076379;28;20462;-89
2021/10/30 06:10:14;;;;;;;31.83;29.23;;;;;;;;;;5076498;28;20412;-90
2021/10/30 06:12:41;;;;;;;30.33;27.77;;;;;;;;;;5076408;28;20416;-90
2021/10/30 06:15:11;;;;;;;28.40;25.93;;;;;;;;;;5076622;28;20408;-91
2021/10/30 06:17:38;;;;;;;29.80;27.50;;;;;;;;;;5076101;28;20463;-90
2021/10/30 06:20:06;;;;;;;29.70;27.50;;;;;;;;;;5076324;28;20907;-91
2021/10/30 06:22:34;;;;;;;29.73;27.40;;;;;;;;;;5074842;28;20500;-90
2021/10/30 06:25:01;;;;;;;29.43;27.23;;;;;;;;;;5076294;28;20416;-91
2021/10/30 06:27:29;;;;;;;28.33;26.27;;;;;;;;;;5076297;28;20845;-90
2021/10/30 06:29:56;;;;;;;28.70;26.50;;;;;;;;;;5076279;28;20209;-90
2021/10/30 06:32:25;;;;;;;29.50;27.30;;;;;;;;;;5075585;28;20495;-90
2021/10/30 06:34:53;;;;;;;29.30;27.07;;;;;;;;;;5074734;28;20449;-91
2021/10/30 06:37:20;;;;;;;29.97;27.57;;;;;;;;;;5075658;28;20930;-90
2021/10/30 06:39:47;;;;;;;28.53;26.43;;;;;;;;;;5076048;28;20935;-91
2021/10/30 06:42:15;;;;;;;26.60;24.80;;;;;;;;;;5075710;28;20950;-89
2021/10/30 06:44:44;;;;;;;28.60;26.23;;;;;;;;;;5076044;28;20445;-90
2021/10/30 06:47:12;;;;;;;29.07;26.83;;;;;;;;;;5075584;28;20472;-89
2021/10/30 06:49:41;;;;;;;27.67;25.50;;;;;;;;;;5075597;28;20503;-88
2021/10/30 06:52:10;;;;;;;28.20;26.20;;;;;;;;;;5075670;28;20515;-91
2021/10/30 06:54:38;;;;;;;27.90;25.80;;;;;;;;;;5075743;28;20445;-90
2021/10/30 06:57:07;;;;;;;28.10;25.90;;;;;;;;;;5075388;28;20520;-90
2021/10/30 06:59:35;;;;;;;28.73;26.63;;;;;;;;;;5075211;28;20498;-88
2021/10/30 07:02:03;;;;;;;28.63;26.53;;;;;;;;;;5075003;28;20468;-87
2021/10/30 07:04:31;;;;;;;27.77;25.67;;;;;;;;;;5075317;28;20437;-90
2021/10/30 07:06:59;;;;;;;27.60;25.40;;;;;;;;;;5074779;28;20419;-88
2021/10/30 07:09:27;;;;;;;28.33;26.17;;;;;;;;;;5075301;28;20474;-89
2021/10/30 07:11:54;;;;;;;26.90;25.03;;;;;;;;;;5074796;28;20433;-88
2021/10/30 07:14:22;;;;;;;28.47;26.33;;;;;;;;;;5074876;28;20426;-89
2021/10/30 07:16:50;;;;;;;27.03;24.93;;;;;;;;;;5074863;28;20508;-89
2021/10/30 07:19:17;;;;;;;27.43;25.23;;;;;;;;;;5074804;28;20452;-89
2021/10/30 07:21:45;;;;;;;27.88;25.88;;;;;;;;;;5075527;28;20434;-93
2021/10/30 07:24:14;;;;;;;28.13;25.83;;;;;;;;;;5074814;28;20195;-95
2021/10/30 07:26:41;;;;;;;26.00;24.10;;;;;;;;;;5073697;28;20456;-95
2021/10/30 07:29:09;;;;;;;28.67;26.30;;;;;;;;;;5075034;28;21012;-94
2021/10/30 07:31:37;;;;;;;27.50;25.60;;;;;;;;;;5074987;28;20908;-95
2021/10/30 07:34:04;;;;;;;25.97;24.07;;;;;;;;;;5074737;28;20437;-94
2021/10/30 07:36:31;;;;;;;28.37;25.93;;;;;;;;;;5074750;28;20460;-95
2021/10/30 07:38:59;;;;;;;25.70;23.90;;;;;;;;;;5074840;28;20460;-92
2021/10/30 07:41:28;;;;;;;27.53;25.53;;;;;;;;;;5074898;28;20415;-93
2021/10/30 07:43:55;;;;;;;27.43;25.50;;;;;;;;;;5074889;28;20452;-93
2021/10/30 07:46:23;;;;;;;27.47;25.27;;;;;;;;;;5074411;28;20437;-93
2021/10/30 07:48:51;;;;;;;27.33;25.40;;;;;;;;;;5074774;28;20464;-93
2021/10/30 07:51:19;;;;;;;27.73;25.83;;;;;;;;;;5073377;28;20421;-94
2021/10/30 07:53:46;;;;;;;25.53;23.67;;;;;;;;;;5074975;28;20736;-94
2021/10/30 07:56:14;;;;;;;25.40;23.70;;;;;;;;;;5074748;28;20457;-94
2021/10/30 07:58:42;;;;;;;24.30;22.50;;;;;;;;;;5074477;28;20467;-96
2021/10/30 08:01:10;;;;;;;27.00;25.10;;;;;;;;;;5074535;28;20808;-94
2021/10/30 08:03:38;;;;;;;25.33;23.63;;;;;;;;;;5074387;28;20446;-95
2021/10/30 08:06:05;;;;;;;25.67;23.90;;;;;;;;;;5073369;28;20464;-94
2021/10/30 08:08:33;;;;;;;25.43;23.73;;;;;;;;;;5074346;28;20519;-94
2021/10/30 08:11:00;;;;;;;26.70;24.70;;;;;;;;;;5074141;28;20950;-94
2021/10/30 08:13:28;;;;;;;27.20;24.93;;;;;;;;;;5074650;28;20452;-94
2021/10/30 08:15:57;;;;;;;25.50;23.70;;;;;;;;;;5073904;28;20507;-94
2021/10/30 08:18:25;;;;;;;26.80;25.03;;;;;;;;;;5074001;28;20489;-93
2021/10/30 08:20:52;;;;;;;24.70;22.97;;;;;;;;;;5074518;28;20444;-94
2021/10/30 08:23:20;;;;;;;26.37;24.60;;;;;;;;;;5074387;28;20795;-94
2021/10/30 08:25:47;;;;;;;25.47;23.77;;;;;;;;;;5072532;28;20439;-94
2021/10/30 08:28:15;;;;;;;24.30;22.80;;;;;;;;;;5074533;28;20472;-95
2021/10/30 08:30:42;;;;;;;24.83;23.33;;;;;;;;;;5074036;28;20430;-95
2021/10/30 08:33:13;;;;;;;25.83;23.90;;;;;;;;;;5074220;28;20442;-95
2021/10/30 08:35:40;;;;;;;25.10;23.40;;;;;;;;;;5074108;28;20412;-95
2021/10/30 08:38:09;;;;;;;25.33;23.07;;;;;;;;;;5073993;28;20919;-96
2021/10/30 08:40:37;;;;;;;25.40;23.47;;;;;;;;;;5074369;28;20453;-95
2021/10/30 08:43:04;;;;;;;25.00;23.27;;;;;;;;;;5076329;28;20439;-88
2021/10/30 08:45:33;;;;;;;24.83;23.00;;;;;;;;;;5084848;28;20434;-96
2021/10/30 08:48:01;;;;;;;24.17;22.67;;;;;;;;;;5086509;28;20438;-94
2021/10/30 08:50:30;;;;;;;25.83;24.23;;;;;;;;;;5085433;28;20461;-96
2021/10/30 08:52:58;;;;;;;24.53;22.80;;;;;;;;;;5094658;28;20424;-96
2021/10/30 08:55:28;;;;;;;24.90;23.40;;;;;;;;;;5089560;28;20472;-96
2021/10/30 08:58:03;;;;;;;25.43;23.73;;;;;;;;;;5089337;28;20401;-96
2021/10/30 09:00:30;;;;;;;23.13;21.63;;;;;;;;;;5087866;28;20498;-96
2021/10/30 09:02:59;;;;;;;24.23;22.63;;;;;;;;;;5081813;28;20440;-96
2021/10/30 09:05:27;;;;;;;23.97;22.47;;;;;;;;;;5092289;28;20408;-96
2021/10/30 09:07:56;;;;;;;24.47;22.97;;;;;;;;;;5089501;28;20473;-96
2021/10/30 09:10:25;;;;;;;24.40;22.90;;;;;;;;;;5092025;28;20468;-96
2021/10/30 09:12:56;;;;;;;24.60;23.10;;;;;;;;;;5094352;28;20464;-96
2021/10/30 09:15:33;;;;;;;23.83;22.43;;;;;;;;;;5094560;28;20408;-97
2021/10/30 09:18:01;;;;;;;24.03;22.53;;;;;;;;;;5095264;28;20453;-96
2021/10/30 09:20:33;;;;;;;25.10;23.47;;;;;;;;;;5080396;28;20452;-96
2021/10/30 09:23:01;;;;;;;24.23;22.83;;;;;;;;;;5076416;28;20429;-96
2021/10/30 09:25:29;;;;;;;24.30;22.80;;;;;;;;;;5075769;28;20415;-96
2021/10/30 09:28:00;;;;;;;24.07;22.30;;;;;;;;;;5086778;28;20415;-96
2021/10/30 09:30:29;;;;;;;24.60;23.13;;;;;;;;;;5094255;28;20841;-96
2021/10/30 09:32:58;;;;;;;24.70;23.10;;;;;;;;;;5092122;28;20439;-96
2021/10/30 09:35:27;;;;;;;24.17;22.70;;;;;;;;;;5092201;28;20448;-97
2021/10/30 09:37:55;;;;;;;23.47;22.03;;;;;;;;;;5096285;28;20431;-96
2021/10/30 09:40:28;;;;;;;23.27;21.70;;;;;;;;;;5097470;28;20449;-96
2021/10/30 09:43:07;;;;;;;23.87;22.37;;;;;;;;;;5086296;28;20462;-93
2021/10/30 09:45:35;;;;;;;23.70;22.27;;;;;;;;;;5077069;28;20958;-93
2021/10/30 09:48:02;;;;;;;22.57;21.10;;;;;;;;;;5081673;28;20449;-93
2021/10/30 09:50:32;;;;;;;23.10;21.77;;;;;;;;;;5079922;28;20412;-85
2021/10/30 09:53:00;;;;;;;24.23;22.43;;;;;;;;;;5075165;28;20421;-87
2021/10/30 09:55:29;;;;;;;24.97;23.10;;;;;;;;;;5078784;28;20473;-90
2021/10/30 09:58:01;;;;;;;23.87;22.43;;;;;;;;;;5077568;28;20435;-89
2021/10/30 10:00:28;;;;;;;23.87;22.37;;;;;;;;;;5076674;28;20457;-88
2021/10/30 10:02:59;;;;;;;24.90;23.30;;;;;;;;;;5077528;28;20438;-94
2021/10/30 10:05:28;;;;;;;23.50;22.00;;;;;;;;;;5076461;28;20426;-92
2021/10/30 10:07:56;;;;;;;25.40;23.70;;;;;;;;;;5076787;28;20436;-93
2021/10/30 10:10:24;;;;;;;24.20;22.70;;;;;;;;;;5076536;28;20437;-92
2021/10/30 10:12:55;;;;;;;24.60;23.10;;;;;;;;;;5076358;28;20445;-92
2021/10/30 10:15:23;;;;;;;25.80;23.87;;;;;;;;;;5076511;28;20441;-95
2021/10/30 10:17:51;;;;;;;24.20;22.80;;;;;;;;;;5076011;28;20481;-94
2021/10/30 10:20:19;;;;;;;24.23;22.80;;;;;;;;;;5075504;28;20484;-95
2021/10/30 10:22:47;;;;;;;24.77;23.27;;;;;;;;;;5076346;28;20409;-94
2021/10/30 10:25:24;;;;;;;25.37;23.70;;;;;;;;;;5076567;28;20426;-95
2021/10/30 10:27:52;;;;;;;25.47;23.67;;;;;;;;;;5076052;28;20444;-94
2021/10/30 10:30:20;;;;;;;26.50;24.80;;;;;;;;;;5076517;28;20455;-93
2021/10/30 10:32:47;;;;;;;25.63;23.93;;;;;;;;;;5076336;28;20445;-95
2021/10/30 10:35:17;;;;;;;25.67;24.07;;;;;;;;;;5076238;28;20461;-95
2021/10/30 10:37:49;;;;;;;25.83;24.03;;;;;;;;;;5076269;28;20828;-95
2021/10/30 10:40:29;;;;;;;25.70;24.00;;;;;;;;;;5076225;28;20448;-95
2021/10/30 10:42:57;;;;;;;25.40;23.80;;;;;;;;;;5076073;28;20415;-94
2021/10/30 10:45:25;;;;;;;26.40;24.70;;;;;;;;;;5075861;28;20465;-94
2021/10/30 10:47:59;;;;;;;27.10;25.40;;;;;;;;;;5074271;28;20424;-95
2021/10/30 10:50:29;;;;;;;26.73;25.03;;;;;;;;;;5074467;28;20556;-95
2021/10/30 10:53:27;;;;;;;26.67;24.87;;;;;;;;;;5075768;28;20882;-95
2021/10/30 10:56:13;;;;;;;26.13;24.43;;;;;;;;;;5075730;28;20864;-93
2021/10/30 10:59:13;;;;;;;25.23;23.53;;;;;;;;;;5075711;28;20457;-93
2021/10/30 11:01:43;;;;;;;26.23;24.43;;;;;;;;;;5075730;28;20896;-93
2021/10/30 11:04:12;;;;;;;27.70;25.90;;;;;;;;;;5075665;28;20461;-96
2021/10/30 11:06:45;;;;;;;27.70;25.60;;;;;;;;;;5075378;28;20452;-94
2021/10/30 11:09:13;;;;;;;26.30;24.60;;;;;;;;;;5075515;28;20497;-94
2021/10/30 11:11:41;;;;;;;26.63;24.93;;;;;;;;;;5075347;28;20453;-93
2021/10/30 11:14:11;;;;;;;27.93;25.93;;;;;;;;;;5075918;28;20456;-93
2021/10/30 11:16:40;;;;;;;27.30;25.40;;;;;;;;;;5074731;28;20587;-92
2021/10/30 11:19:13;;;;;;;26.83;25.17;;;;;;;;;;5075204;28;20441;-92
2021/10/30 11:21:44;;;;;;;26.73;24.83;;;;;;;;;;5075311;28;20437;-91
2021/10/30 11:24:17;;;;;;;25.90;24.20;;;;;;;;;;5075202;28;20794;-92
2021/10/30 11:26:44;;;;;;;26.87;24.97;;;;;;;;;;5075299;28;20434;-92
2021/10/30 11:29:12;;;;;;;26.53;24.83;;;;;;;;;;5075244;28;20483;-94
2021/10/30 11:31:40;;;;;;;27.50;25.57;;;;;;;;;;5074918;28;20890;-93
2021/10/30 11:34:08;;;;;;;27.77;25.77;;;;;;;;;;5075072;28;20437;-93
2021/10/30 11:36:37;;;;;;;28.60;26.30;;;;;;;;;;5075021;28;20427;-93
2021/10/30 11:39:05;;;;;;;27.20;25.30;;;;;;;;;;5074786;28;20417;-93
2021/10/30 11:41:33;;;;;;;27.60;25.70;;;;;;;;;;5075287;28;20431;-92
2021/10/30 11:44:02;;;;;;;29.20;27.20;;;;;;;;;;5074646;28;20434;-92
2021/10/30 11:46:29;;;;;;;29.53;27.43;;;;;;;;;;5074763;28;20456;-92
2021/10/30 11:48:58;;;;;;;27.77;25.83;;;;;;;;;;5074211;28;20499;-91
2021/10/30 11:51:38;;;;;;;29.23;27.13;;;;;;;;;;5074725;28;20423;-92
2021/10/30 11:54:08;;;;;;;28.10;26.20;;;;;;;;;;5074688;28;20464;-91
2021/10/30 11:56:35;;;;;;;27.57;25.60;;;;;;;;;;5074292;28;20532;-92
2021/10/30 11:59:04;;;;;;;28.27;26.27;;;;;;;;;;5074129;28;20434;-91
2021/10/30 12:01:32;;;;;;;29.40;27.40;;;;;;;;;;5074131;28;20445;-91
2021/10/30 12:04:00;;;;;;;28.17;26.27;;;;;;;;;;5074786;28;20415;-92
2021/10/30 12:06:27;;;;;;;28.53;26.47;;;;;;;;;;5073313;28;20420;-92
2021/10/30 12:08:57;;;;;;;27.03;25.10;;;;;;;;;;5074426;28;20481;-91
2021/10/30 12:11:26;;;;;;;28.30;26.20;;;;;;;;;;5074319;28;20818;-92
2021/10/30 12:13:55;;;;;;;27.77;25.70;;;;;;;;;;5074160;28;20421;-92
2021/10/30 12:16:22;;;;;;;26.57;24.87;;;;;;;;;;5073919;28;20492;-90
2021/10/30 12:18:52;;;;;;;27.60;25.40;;;;;;;;;;5073980;28;20460;-92
2021/10/30 12:21:19;;;;;;;26.73;24.80;;;;;;;;;;5072956;28;20493;-93
2021/10/30 12:23:58;;;;;;;27.17;25.30;;;;;;;;;;5073832;28;20445;-92
2021/10/30 12:26:28;;;;;;;28.00;26.00;;;;;;;;;;5073879;28;20459;-93
2021/10/30 12:28:56;;;;;;;29.37;26.87;;;;;;;;;;5074304;28;20441;-92
2021/10/30 12:31:30;;;;;;;27.33;25.37;;;;;;;;;;5074242;28;20416;-94
2021/10/30 12:33:59;;;;;;;26.17;24.30;;;;;;;;;;5073900;28;20436;-94
2021/10/30 12:36:30;;;;;;;28.20;26.00;;;;;;;;;;5074278;28;20412;-95
2021/10/30 12:38:58;;;;;;;26.70;24.80;;;;;;;;;;5074144;28;20465;-95
2021/10/30 12:41:33;;;;;;;28.13;26.07;;;;;;;;;;5074087;28;20470;-96
2021/10/30 12:44:02;;;;;;;28.03;25.93;;;;;;;;;;5073760;28;20425;-94
2021/10/30 12:46:44;;;;;;;27.43;25.23;;;;;;;;;;5074178;28;20906;-95
2021/10/30 12:49:12;;;;;;;28.10;25.80;;;;;;;;;;5072440;28;20472;-93
2021/10/30 12:51:40;;;;;;;27.97;25.80;;;;;;;;;;5074029;28;20438;-92
2021/10/30 12:54:09;;;;;;;25.53;23.77;;;;;;;;;;5074105;28;20875;-93
2021/10/30 12:56:44;;;;;;;27.13;25.10;;;;;;;;;;5073845;28;20431;-94
2021/10/30 12:59:12;;;;;;;27.00;25.10;;;;;;;;;;5074059;28;20415;-93
2021/10/30 13:01:39;;;;;;;26.70;24.90;;;;;;;;;;5073996;28;20462;-92
2021/10/30 13:04:08;;;;;;;27.37;25.23;;;;;;;;;;5073814;28;20433;-92
2021/10/30 13:06:37;;;;;;;26.93;24.87;;;;;;;;;;5073744;28;20423;-92
2021/10/30 13:09:06;;;;;;;27.53;25.53;;;;;;;;;;5073339;28;20444;-92
2021/10/30 13:11:33;;;;;;;28.83;26.83;;;;;;;;;;5076061;28;20813;-93
2021/10/30 13:14:02;;;;;;;27.40;25.60;;;;;;;;;;5077723;28;20408;-92
2021/10/30 13:16:30;;;;;;;29.40;26.97;;;;;;;;;;5077154;28;20480;-93
2021/10/30 13:18:57;;;;;;;29.63;27.33;;;;;;;;;;5076256;28;20478;-93
2021/10/30 13:21:26;;;;;;;29.97;27.53;;;;;;;;;;5077524;28;20449;-92
2021/10/30 13:23:55;;;;;;;27.93;25.93;;;;;;;;;;5077477;28;20445;-92
2021/10/30 13:26:22;;;;;;;29.70;27.50;;;;;;;;;;5077490;28;20449;-92
2021/10/30 13:28:50;;;;;;;28.47;26.57;;;;;;;;;;5076210;28;20863;-91
2021/10/30 13:31:21;;;;;;;29.37;27.17;;;;;;;;;;5077031;28;21020;-92
2021/10/30 13:33:48;;;;;;;28.30;26.00;;;;;;;;;;5077288;28;20416;-92
2021/10/30 13:36:17;;;;;;;32.80;30.23;;;;;;;;;;5077050;28;20404;-92
2021/10/30 13:38:44;;;;;;;29.30;27.20;;;;;;;;;;5077167;28;20415;-92
2021/10/30 13:41:12;;;;;;;29.30;27.23;;;;;;;;;;5076821;28;20412;-91
2021/10/30 13:43:40;;;;;;;29.93;27.73;;;;;;;;;;5076805;28;20412;-91
2021/10/30 13:46:08;;;;;;;28.70;26.60;;;;;;;;;;5077078;28;20428;-92
2021/10/30 13:51:04;;;;;;;30.47;27.93;;;;;;;;;;5058353;23;20490;-93
2021/10/30 13:53:31;;;;;;;30.33;28.10;;;;;;;;;;5056920;28;20634;-89
2021/10/30 13:55:59;;;;;;;28.50;26.50;;;;;;;;;;5056948;28;20421;-92
2021/10/30 13:58:26;;;;;;;29.30;27.00;;;;;;;;;;5056934;28;20879;-94
2021/10/30 14:00:54;;;;;;;28.50;26.47;;;;;;;;;;5055141;28;20453;-89
2021/10/30 14:03:21;;;;;;;29.43;26.97;;;;;;;;;;5056110;28;20900;-88
2021/10/30 14:05:49;;;;;;;30.27;28.10;;;;;;;;;;5056874;28;20444;-89
2021/10/30 14:08:19;;;;;;;29.73;27.23;;;;;;;;;;5055527;28;20413;-87
2021/10/30 14:10:46;;;;;;;28.10;25.80;;;;;;;;;;5057092;28;20468;-94
2021/10/30 14:13:14;;;;;;;28.63;26.50;;;;;;;;;;5057035;28;20420;-96
2021/10/30 14:15:42;;;;;;;28.03;25.90;;;;;;;;;;5057239;28;20418;-89
2021/10/30 14:18:09;;;;;;;29.57;27.37;;;;;;;;;;5056565;28;20429;-90
2021/10/30 14:20:37;;;;;;;27.87;25.67;;;;;;;;;;5056332;28;20434;-90
2021/10/30 14:23:04;;;;;;;29.00;26.80;;;;;;;;;;5056737;28;20420;-89
2021/10/30 14:25:33;;;;;;;28.20;26.17;;;;;;;;;;5056485;28;20405;-90